Paineville, Illinois
Current Conditions -  °F | °C
As of 7:45 AM on Saturday 01 Nov 2014 (Local Time) from KMWA Reporting Station
Clear Clear  
Wind Chill: 24°   Ceiling: Unl
Heat Index: 32°   Visibility: 20mi
Dew Point: 23°   Wind: 9mph
Humidity: 69%   Direction: 340°NNW
Pressure: 30.4"   Gusts: 16mph
Location:  37.8118°N, 89.0053°W
Report Text: KMWA 011245Z 34008G14KT 20SM SKC 00/M05 A3040
Loading
Personal Weather Stations






























Interactive Weather Map
Tropical Storm Tracking
New forecast layout! Learn more

10-Day Weather Forecast

Advertisements
Track Severe Weather on mobile